createdAt,value
2022-08-05T00:00:50.181Z,44.63
2022-08-05T00:03:17.017Z,44.63
2022-08-05T00:06:05.582Z,44.38
2022-08-05T00:08:34.374Z,44.31
2022-08-05T00:11:20.317Z,43.80
2022-08-05T00:13:52.949Z,43.82
2022-08-05T00:16:20.218Z,43.95
2022-08-05T00:19:03.745Z,43.94
2022-08-05T00:21:30.508Z,44.14
2022-08-05T00:24:10.677Z,44.26
2022-08-05T00:26:38.195Z,43.94
2022-08-05T00:29:04.693Z,44.29
2022-08-05T00:31:53.961Z,44.21
2022-08-05T00:34:54.815Z,44.11
2022-08-05T00:37:12.567Z,44.49
2022-08-05T00:39:57.198Z,44.68
2022-08-05T00:42:36.661Z,44.75
2022-08-05T00:45:05.378Z,44.75
2022-08-05T00:47:56.570Z,44.56
2022-08-05T00:50:25.412Z,44.63
2022-08-05T00:52:53.313Z,44.38
2022-08-05T00:55:21.479Z,44.82
2022-08-05T00:57:57.979Z,44.49
2022-08-05T01:00:29.688Z,44.68
2022-08-05T01:02:57.807Z,44.89
2022-08-05T01:05:27.565Z,44.92
2022-08-05T01:08:40.997Z,44.46
2022-08-05T01:10:51.435Z,44.72
2022-08-05T01:13:58.436Z,44.78
2022-08-05T01:16:29.995Z,44.76
2022-08-05T01:19:01.157Z,44.84
2022-08-05T01:21:38.974Z,44.36
2022-08-05T01:24:26.794Z,44.85
2022-08-05T01:27:17.608Z,44.72
2022-08-05T01:29:47.564Z,44.43
2022-08-05T01:32:18.696Z,44.18
2022-08-05T01:34:53.461Z,44.80
2022-08-05T01:37:44.566Z,44.37
2022-08-05T01:40:12.620Z,44.90
2022-08-05T01:42:41.721Z,44.57
2022-08-05T01:45:09.070Z,44.59
2022-08-05T01:47:39.527Z,44.55
2022-08-05T01:50:15.761Z,44.72
2022-08-05T01:52:49.984Z,44.65
2022-08-05T01:55:18.500Z,44.53
2022-08-05T01:58:18.782Z,45.05
2022-08-05T02:00:35.526Z,45.15
2022-08-05T02:03:23.981Z,44.89
2022-08-05T02:05:53.561Z,44.57
2022-08-05T02:08:30.957Z,45.11
2022-08-05T02:11:03.437Z,45.21
2022-08-05T02:13:36.494Z,45.34
2022-08-05T02:16:28.323Z,45.03
2022-08-05T02:19:16.848Z,45.26
2022-08-05T02:21:54.643Z,45.11
2022-08-05T02:24:23.516Z,45.23
2022-08-05T02:26:55.142Z,45.59
2022-08-05T02:29:26.271Z,45.21
2022-08-05T02:32:12.131Z,45.51
2022-08-05T02:34:54.830Z,45.43
2022-08-05T02:37:23.466Z,45.28
2022-08-05T02:39:52.255Z,45.13
2022-08-05T02:42:27.312Z,45.50
2022-08-05T02:44:55.336Z,45.30
2022-08-05T02:47:22.724Z,45.37
2022-08-05T02:49:49.913Z,45.21
2022-08-05T02:52:25.939Z,45.31
2022-08-05T02:54:57.083Z,45.00
2022-08-05T02:58:11.882Z,45.29
2022-08-05T03:00:13.180Z,45.30
2022-08-05T03:02:40.853Z,45.15
2022-08-05T03:05:11.464Z,45.28
2022-08-05T03:07:59.220Z,45.70
2022-08-05T03:10:26.509Z,45.39
2022-08-05T03:12:54.287Z,45.38
2022-08-05T03:15:23.496Z,45.49
2022-08-05T03:17:53.874Z,45.77
2022-08-05T03:20:21.899Z,45.25
2022-08-05T03:22:50.540Z,45.49
2022-08-05T03:25:32.834Z,45.43
2022-08-05T03:28:02.103Z,45.36
2022-08-05T03:30:33.557Z,45.32
2022-08-05T03:33:01.681Z,45.32
2022-08-05T03:35:28.889Z,45.20
2022-08-05T03:38:02.585Z,45.13
2022-08-05T03:40:32.393Z,45.17
2022-08-05T03:43:01.390Z,45.75
2022-08-05T03:45:58.316Z,45.48
2022-08-05T03:48:29.595Z,45.79
2022-08-05T03:52:48.554Z,46.17
2022-08-05T03:55:34.006Z,45.93
2022-08-05T03:57:16.688Z,46.01
2022-08-05T03:59:55.580Z,46.06
2022-08-05T04:02:38.469Z,46.25
2022-08-05T04:05:12.743Z,45.95
2022-08-05T04:07:53.167Z,46.18
2022-08-05T04:10:27.907Z,46.13
2022-08-05T04:12:55.633Z,45.52
2022-08-05T04:15:26.465Z,45.80
2022-08-05T04:17:56.236Z,45.35
2022-08-05T04:20:24.370Z,45.77
2022-08-05T04:22:51.084Z,45.21
2022-08-05T04:25:17.821Z,45.29
2022-08-05T04:27:56.855Z,45.07
2022-08-05T04:30:24.789Z,45.31
2022-08-05T04:32:53.194Z,44.76
2022-08-05T04:35:20.067Z,45.04
2022-08-05T04:38:02.695Z,44.94
2022-08-05T04:40:37.098Z,44.46
2022-08-05T04:43:04.598Z,44.15
2022-08-05T04:45:48.351Z,44.42
2022-08-05T04:48:18.411Z,44.15
2022-08-05T04:51:03.075Z,44.40
2022-08-05T04:53:36.653Z,43.90
2022-08-05T04:56:14.643Z,43.60
2022-08-05T04:58:55.967Z,43.96
2022-08-05T05:02:08.196Z,43.66
2022-08-05T05:04:09.504Z,43.60
2022-08-05T05:06:44.385Z,43.59
2022-08-05T05:09:14.055Z,44.18
2022-08-05T05:11:53.139Z,44.30
2022-08-05T05:14:27.863Z,44.70
2022-08-05T05:16:59.881Z,44.88
2022-08-05T05:19:37.171Z,44.72
2022-08-05T05:22:23.839Z,44.56
2022-08-05T05:24:58.365Z,44.82
2022-08-05T05:27:45.143Z,44.70
2022-08-05T05:30:29.093Z,44.58
2022-08-05T05:33:00.782Z,44.42
2022-08-05T05:35:29.184Z,44.35
2022-08-05T05:38:03.437Z,44.31
2022-08-05T05:40:32.385Z,44.28
2022-08-05T05:43:02.122Z,44.46
2022-08-05T05:45:29.064Z,44.33
2022-08-05T05:48:06.410Z,44.05
2022-08-05T05:50:41.029Z,44.31
2022-08-05T05:53:22.333Z,44.22
2022-08-05T05:55:51.961Z,43.98
2022-08-05T05:58:32.056Z,43.99
2022-08-05T06:01:02.485Z,44.13
2022-08-05T06:04:01.378Z,44.02
2022-08-05T06:06:30.982Z,43.96
2022-08-05T06:08:59.154Z,43.70
2022-08-05T06:11:25.990Z,43.56
2022-08-05T06:13:54.127Z,43.30
2022-08-05T06:16:30.124Z,43.49
2022-08-05T06:19:02.034Z,43.11
2022-08-05T06:21:36.505Z,43.28
2022-08-05T06:24:06.253Z,43.22
2022-08-05T06:26:37.793Z,43.00
2022-08-05T06:29:23.555Z,43.26
2022-08-05T06:31:51.274Z,43.07
2022-08-05T06:34:20.284Z,42.82
2022-08-05T06:36:57.946Z,42.85
2022-08-05T06:39:27.723Z,42.87
2022-08-05T06:41:56.442Z,42.58
2022-08-05T06:44:26.478Z,42.60
2022-08-05T06:46:54.370Z,42.35
2022-08-05T06:49:21.549Z,42.15
2022-08-05T06:52:08.087Z,42.08
2022-08-05T06:54:54.622Z,41.39
2022-08-05T06:58:03.961Z,41.01
2022-08-05T07:00:09.795Z,40.86
2022-08-05T07:02:46.572Z,40.39
2022-08-05T07:05:15.389Z,40.35
2022-08-05T07:07:49.008Z,40.32
2022-08-05T07:10:16.503Z,40.17
2022-08-05T07:13:03.006Z,40.05
2022-08-05T07:16:01.652Z,39.78
2022-08-05T07:18:31.597Z,39.82
2022-08-05T07:20:58.479Z,39.78
2022-08-05T07:23:31.444Z,39.99
2022-08-05T07:25:57.974Z,39.90
2022-08-05T07:28:25.255Z,40.51
2022-08-05T07:30:53.989Z,40.70
2022-08-05T07:33:36.983Z,40.24
2022-08-05T07:36:20.557Z,40.36
2022-08-05T07:38:49.962Z,40.76
2022-08-05T07:42:08.518Z,40.75
2022-08-05T07:44:19.210Z,41.14
2022-08-05T07:46:49.303Z,41.31
2022-08-05T07:49:18.233Z,41.44
2022-08-05T07:51:53.640Z,41.23
2022-08-05T07:54:31.021Z,41.36
2022-08-05T07:57:16.927Z,41.50
2022-08-05T07:59:48.986Z,41.36
2022-08-05T08:02:17.624Z,41.40
2022-08-05T08:04:49.403Z,41.06
2022-08-05T08:07:22.057Z,40.91
2022-08-05T08:09:52.609Z,40.85
2022-08-05T08:12:33.409Z,41.16
2022-08-05T08:15:14.010Z,40.84
2022-08-05T08:17:43.958Z,40.50
2022-08-05T08:20:43.326Z,40.78
2022-08-05T08:23:03.388Z,41.07
2022-08-05T08:25:59.771Z,41.30
2022-08-05T08:28:18.139Z,41.42
2022-08-05T08:30:47.780Z,41.46
2022-08-05T08:33:16.705Z,41.08
2022-08-05T08:35:52.806Z,40.66
2022-08-05T08:38:35.897Z,40.89
2022-08-05T08:41:10.263Z,41.03
2022-08-05T08:45:23.097Z,41.06
2022-08-05T08:46:29.460Z,41.32
2022-08-05T08:49:06.386Z,41.08
2022-08-05T08:52:04.032Z,41.44
2022-08-05T08:54:33.495Z,41.59
2022-08-05T08:57:03.361Z,41.61
2022-08-05T08:59:33.752Z,41.62
2022-08-05T09:02:02.147Z,41.41
2022-08-05T09:04:30.513Z,41.96
2022-08-05T09:06:58.466Z,41.96
2022-08-05T09:09:25.939Z,41.68
2022-08-05T09:12:03.394Z,42.05
2022-08-05T09:14:58.634Z,42.22
2022-08-05T09:17:40.648Z,42.22
2022-08-05T09:20:10.947Z,42.37
2022-08-05T09:23:05.506Z,42.20
2022-08-05T09:26:01.997Z,42.51
2022-08-05T09:28:24.436Z,42.07
2022-08-05T09:31:22.339Z,42.46
2022-08-05T09:33:56.207Z,42.41
2022-08-05T09:36:27.591Z,41.91
2022-08-05T09:39:16.378Z,41.49
2022-08-05T09:42:04.703Z,41.93
2022-08-05T09:44:51.251Z,41.82
2022-08-05T09:47:22.432Z,41.84
2022-08-05T09:50:02.262Z,42.27
2022-08-05T09:52:31.497Z,42.32
2022-08-05T09:55:57.697Z,42.52
2022-08-05T09:58:00.337Z,42.70
2022-08-05T10:00:27.609Z,43.15
2022-08-05T10:02:58.670Z,42.92
2022-08-05T10:05:27.768Z,43.16
2022-08-05T10:08:34.631Z,42.63
2022-08-05T10:10:50.250Z,42.55
2022-08-05T10:13:43.864Z,42.52
2022-08-05T10:16:32.108Z,42.80
2022-08-05T10:19:01.509Z,42.37
2022-08-05T10:21:40.150Z,42.35
2022-08-05T10:24:13.493Z,42.20
2022-08-05T10:26:51.516Z,43.03
2022-08-05T10:29:23.912Z,43.41
2022-08-05T10:32:52.806Z,43.87
2022-08-05T10:35:01.167Z,43.64
2022-08-05T10:37:40.331Z,43.44
2022-08-05T10:40:46.734Z,43.83
2022-08-05T10:43:37.584Z,43.34
2022-08-05T10:46:07.841Z,43.64
2022-08-05T10:48:52.721Z,43.72
2022-08-05T10:51:29.072Z,43.95
2022-08-05T10:53:56.246Z,43.97
2022-08-05T10:56:27.365Z,44.78
2022-08-05T10:58:53.845Z,45.32
2022-08-05T11:02:03.836Z,45.78
2022-08-05T11:04:21.369Z,45.84
2022-08-05T11:07:00.643Z,45.86
2022-08-05T11:09:39.237Z,46.30
2022-08-05T11:12:34.678Z,46.51
2022-08-05T11:15:20.125Z,46.26
2022-08-05T11:18:00.178Z,46.16
2022-08-05T11:20:45.130Z,45.59
2022-08-05T11:23:33.678Z,45.75
2022-08-05T11:26:28.031Z,46.08
2022-08-05T11:29:02.426Z,45.85
2022-08-05T11:31:56.648Z,46.00
2022-08-05T11:34:51.709Z,45.91
2022-08-05T11:38:36.741Z,46.33
2022-08-05T11:41:34.226Z,46.29
2022-08-05T11:44:04.492Z,46.32
2022-08-05T11:47:09.547Z,45.98
2022-08-05T11:49:24.917Z,46.36
2022-08-05T11:51:53.434Z,46.13
2022-08-05T11:54:33.400Z,46.60
2022-08-05T11:57:08.701Z,46.56
2022-08-05T11:59:49.705Z,46.83
2022-08-05T12:02:30.542Z,46.78
2022-08-05T12:05:06.774Z,46.63
2022-08-05T12:08:07.420Z,47.09
2022-08-05T12:10:43.129Z,46.82
2022-08-05T12:13:16.791Z,46.63
2022-08-05T12:15:49.948Z,46.86
2022-08-05T12:18:30.916Z,46.92
2022-08-05T12:21:15.537Z,46.99
2022-08-05T12:24:04.478Z,47.10
2022-08-05T12:26:44.370Z,47.18
2022-08-05T12:29:22.971Z,47.90
2022-08-05T12:31:57.743Z,47.94
2022-08-05T12:34:32.893Z,48.36
2022-08-05T12:37:10.712Z,48.41
2022-08-05T12:39:39.579Z,49.15
2022-08-05T12:42:14.635Z,48.92
2022-08-05T12:44:41.793Z,49.00
2022-08-05T12:47:22.403Z,49.62
2022-08-05T12:50:04.430Z,49.52
2022-08-05T12:52:41.709Z,49.81
2022-08-05T12:55:22.352Z,49.85
2022-08-05T12:58:49.788Z,49.75
2022-08-05T13:02:01.450Z,49.05
2022-08-05T13:03:31.930Z,48.99
2022-08-05T13:06:00.152Z,48.86
2022-08-05T13:08:32.152Z,48.56
2022-08-05T13:11:02.155Z,48.67
2022-08-05T13:14:05.234Z,48.92
2022-08-05T13:16:17.347Z,48.48
2022-08-05T13:18:59.574Z,48.58
2022-08-05T13:21:28.219Z,48.61
2022-08-05T13:24:04.478Z,48.79
2022-08-05T13:26:31.014Z,49.17
2022-08-05T13:28:59.108Z,49.24
2022-08-05T13:32:02.917Z,49.31
2022-08-05T13:34:22.023Z,49.27
2022-08-05T13:36:50.217Z,48.96
2022-08-05T13:39:24.460Z,48.97
2022-08-05T13:42:03.672Z,49.60
2022-08-05T13:44:30.161Z,49.51
2022-08-05T13:47:05.019Z,49.35
2022-08-05T13:49:35.576Z,49.73
2022-08-05T13:52:16.787Z,49.75
2022-08-05T13:54:43.442Z,49.63
2022-08-05T13:57:20.664Z,49.42
2022-08-05T13:59:57.585Z,49.26
2022-08-05T14:02:26.576Z,49.21
2022-08-05T14:05:11.454Z,49.19
2022-08-05T14:08:00.111Z,49.45
2022-08-05T14:10:28.392Z,49.27
2022-08-05T14:12:57.164Z,49.44
2022-08-05T14:16:04.742Z,49.40
2022-08-05T14:18:14.777Z,49.50
2022-08-05T14:20:47.063Z,50.04
2022-08-05T14:23:15.358Z,50.13
2022-08-05T14:25:53.985Z,50.18
2022-08-05T14:28:26.783Z,49.91
2022-08-05T14:30:54.541Z,50.03
2022-08-05T14:33:22.792Z,49.99
2022-08-05T14:35:51.693Z,49.67
2022-08-05T14:38:32.937Z,49.61
2022-08-05T14:41:05.611Z,49.94
2022-08-05T14:44:02.107Z,49.90
2022-08-05T14:46:21.749Z,50.32
2022-08-05T14:48:50.000Z,50.30
2022-08-05T14:51:17.569Z,50.00
2022-08-05T14:53:44.960Z,49.72
2022-08-05T14:56:12.103Z,50.41
2022-08-05T14:58:47.569Z,50.64
2022-08-05T15:01:24.205Z,50.83
2022-08-05T15:04:11.530Z,50.95
2022-08-05T15:06:38.759Z,50.72
2022-08-05T15:09:07.127Z,50.35
2022-08-05T15:11:50.894Z,49.54
2022-08-05T15:14:34.871Z,49.61
2022-08-05T15:17:09.784Z,49.25
2022-08-05T15:19:53.561Z,49.06
2022-08-05T15:22:21.908Z,49.23
2022-08-05T15:24:54.173Z,49.23
2022-08-05T15:27:20.738Z,49.44
2022-08-05T15:29:47.231Z,49.53
2022-08-05T15:32:16.376Z,49.95
2022-08-05T15:34:43.217Z,50.47
2022-08-05T15:38:08.702Z,50.15
2022-08-05T15:41:02.715Z,50.14
2022-08-05T15:42:57.051Z,50.33
2022-08-05T15:45:38.682Z,50.12
2022-08-05T15:48:05.696Z,50.01
2022-08-05T15:50:33.549Z,50.26
2022-08-05T15:53:05.162Z,50.04
2022-08-05T15:56:01.805Z,49.79
2022-08-05T15:58:18.902Z,50.25
2022-08-05T16:00:50.871Z,50.01
2022-08-05T16:03:33.818Z,50.23
2022-08-05T16:06:00.639Z,50.30
2022-08-05T16:08:30.417Z,50.38
2022-08-05T16:10:57.293Z,50.60
2022-08-05T16:13:32.074Z,50.46
2022-08-05T16:16:01.982Z,50.47
2022-08-05T16:18:30.869Z,50.71
2022-08-05T16:20:57.533Z,50.92
2022-08-05T16:23:24.250Z,50.78
2022-08-05T16:25:55.194Z,50.98
2022-08-05T16:28:22.467Z,51.17
2022-08-05T16:30:52.111Z,51.32
2022-08-05T16:33:19.464Z,51.30
2022-08-05T16:35:49.936Z,51.68
2022-08-05T16:38:25.084Z,51.98
2022-08-05T16:41:00.030Z,51.84
2022-08-05T16:43:35.135Z,52.04
2022-08-05T16:46:23.877Z,51.82
2022-08-05T16:48:50.430Z,51.94
2022-08-05T16:51:17.505Z,51.77
2022-08-05T16:54:04.335Z,51.40
2022-08-05T16:56:33.658Z,51.37
2022-08-05T16:59:08.465Z,51.02
2022-08-05T17:01:53.709Z,50.71
2022-08-05T17:04:23.666Z,50.58
2022-08-05T17:06:53.310Z,50.83
2022-08-05T17:09:20.523Z,50.88
2022-08-05T17:11:48.723Z,51.00
2022-08-05T17:14:22.334Z,51.21
2022-08-05T17:17:01.401Z,51.18
2022-08-05T17:19:29.302Z,51.32
2022-08-05T17:21:57.211Z,51.11
2022-08-05T17:24:35.034Z,51.19
2022-08-05T17:27:08.175Z,50.84
2022-08-05T17:29:40.833Z,50.83
2022-08-05T17:32:17.572Z,50.98
2022-08-05T17:34:47.691Z,51.39
2022-08-05T17:37:40.443Z,51.28
2022-08-05T17:40:10.985Z,51.66
2022-08-05T17:42:41.410Z,51.62
2022-08-05T17:45:20.875Z,51.56
2022-08-05T17:47:53.904Z,51.66
2022-08-05T17:50:27.817Z,51.75
2022-08-05T17:52:55.748Z,51.73
2022-08-05T17:55:27.372Z,51.58
2022-08-05T17:58:09.635Z,51.60
2022-08-05T18:00:45.261Z,51.58
2022-08-05T18:03:48.469Z,51.97
2022-08-05T18:06:11.829Z,52.35
2022-08-05T18:08:40.630Z,52.77
2022-08-05T18:11:23.771Z,52.87
2022-08-05T18:13:59.757Z,53.23
2022-08-05T18:16:26.580Z,53.17
2022-08-05T18:18:53.103Z,53.21
2022-08-05T18:21:22.772Z,53.50
2022-08-05T18:23:53.815Z,53.46
2022-08-05T18:26:27.831Z,53.60
2022-08-05T18:28:56.965Z,53.60
2022-08-05T18:31:23.994Z,53.70
2022-08-05T18:33:51.665Z,54.02
2022-08-05T18:36:19.172Z,54.40
2022-08-05T18:38:46.195Z,54.30
2022-08-05T18:41:55.606Z,54.63
2022-08-05T18:44:06.380Z,54.54
2022-08-05T18:46:34.554Z,55.05
2022-08-05T18:49:21.320Z,55.50
2022-08-05T18:52:09.053Z,55.89
2022-08-05T18:54:41.435Z,56.37
2022-08-05T18:57:15.292Z,56.54
2022-08-05T19:00:03.337Z,57.13
2022-08-05T19:02:28.988Z,57.60
2022-08-05T19:05:02.194Z,57.59
2022-08-05T19:07:46.554Z,57.51
2022-08-05T19:10:17.659Z,57.21
2022-08-05T19:12:46.202Z,57.23
2022-08-05T19:15:57.147Z,57.04
2022-08-05T19:18:09.739Z,57.14
2022-08-05T19:20:41.549Z,57.19
2022-08-05T19:23:22.774Z,57.11
2022-08-05T19:26:01.913Z,56.75
2022-08-05T19:28:32.926Z,56.64
2022-08-05T19:31:00.294Z,57.45
2022-08-05T19:33:35.437Z,57.37
2022-08-05T19:36:06.780Z,57.49
2022-08-05T19:38:35.666Z,57.47
2022-08-05T19:41:02.892Z,57.60
2022-08-05T19:44:06.886Z,57.30
2022-08-05T19:46:30.376Z,57.13
2022-08-05T19:49:01.214Z,57.20
2022-08-05T19:52:05.240Z,57.18
2022-08-05T19:54:22.849Z,57.57
2022-08-05T19:56:56.367Z,57.54
2022-08-05T20:00:01.047Z,57.54
2022-08-05T20:02:09.625Z,57.52
2022-08-05T20:04:37.777Z,57.68
2022-08-05T20:07:13.177Z,57.85
2022-08-05T20:09:54.092Z,57.46
2022-08-05T20:12:24.104Z,57.55
2022-08-05T20:14:52.251Z,57.38
2022-08-05T20:17:23.219Z,57.81
2022-08-05T20:19:49.982Z,57.83
2022-08-05T20:22:16.882Z,57.95
2022-08-05T20:24:43.411Z,58.06
2022-08-05T20:27:11.114Z,58.08
2022-08-05T20:29:38.263Z,57.85
2022-08-05T20:32:06.488Z,58.24
2022-08-05T20:34:33.039Z,58.33
2022-08-05T20:37:00.779Z,58.24
2022-08-05T20:39:35.464Z,58.44
2022-08-05T20:42:04.122Z,58.34
2022-08-05T20:44:33.083Z,58.36
2022-08-05T20:47:07.389Z,58.18
2022-08-05T20:49:39.755Z,58.20
2022-08-05T20:52:06.996Z,57.94
2022-08-05T20:54:58.957Z,57.82
2022-08-05T20:57:42.541Z,57.53
2022-08-05T21:00:19.756Z,57.21
2022-08-05T21:02:57.845Z,57.17
2022-08-05T21:05:24.663Z,57.30
2022-08-05T21:07:52.267Z,57.35
2022-08-05T21:10:19.275Z,57.19
2022-08-05T21:12:58.068Z,57.10
2022-08-05T21:15:33.836Z,57.05
2022-08-05T21:18:00.763Z,56.78
2022-08-05T21:20:32.773Z,56.80
2022-08-05T21:23:00.188Z,57.08
2022-08-05T21:25:33.829Z,56.93
2022-08-05T21:28:03.148Z,56.92
2022-08-05T21:30:29.928Z,56.90
2022-08-05T21:32:56.512Z,56.78
2022-08-05T21:35:29.608Z,56.79
2022-08-05T21:37:57.282Z,57.02
2022-08-05T21:40:24.620Z,57.23
2022-08-05T21:42:53.573Z,57.39
2022-08-05T21:45:24.748Z,57.07
2022-08-05T21:48:08.945Z,57.19
2022-08-05T21:50:36.666Z,57.20
2022-08-05T21:53:16.442Z,56.94
2022-08-05T21:56:05.395Z,56.96
2022-08-05T21:58:32.205Z,56.89
2022-08-05T22:00:59.378Z,56.66
2022-08-05T22:03:49.118Z,56.83
2022-08-05T22:06:12.567Z,56.92
2022-08-05T22:08:42.766Z,56.77
2022-08-05T22:11:12.018Z,56.62
2022-08-05T22:14:19.510Z,56.45
2022-08-05T22:16:41.786Z,56.26
2022-08-05T22:19:57.414Z,56.68
2022-08-05T22:22:02.093Z,56.46
2022-08-05T22:24:51.813Z,56.42
2022-08-05T22:28:08.176Z,56.13
2022-08-05T22:30:24.762Z,55.93
2022-08-05T22:32:59.121Z,56.21
2022-08-05T22:35:25.738Z,56.08
2022-08-05T22:37:59.057Z,56.32
2022-08-05T22:40:26.457Z,56.13
2022-08-05T22:42:58.185Z,56.17
2022-08-05T22:45:26.368Z,56.34
2022-08-05T22:47:55.363Z,56.14
2022-08-05T22:50:27.846Z,56.20
2022-08-05T22:52:54.882Z,55.95
2022-08-05T22:55:23.796Z,55.87
2022-08-05T22:57:51.741Z,55.71
2022-08-05T23:00:20.474Z,55.70
2022-08-05T23:02:48.081Z,55.74
2022-08-05T23:05:15.600Z,55.86
2022-08-05T23:07:45.449Z,55.73
2022-08-05T23:10:16.323Z,55.79
2022-08-05T23:12:47.047Z,55.89
2022-08-05T23:15:13.721Z,55.77
2022-08-05T23:18:01.476Z,55.88
2022-08-05T23:20:29.511Z,55.66
2022-08-05T23:22:56.537Z,55.51
2022-08-05T23:25:53.303Z,55.80
2022-08-05T23:28:12.159Z,55.47
2022-08-05T23:30:40.464Z,55.64
2022-08-05T23:33:16.029Z,55.63
2022-08-05T23:35:50.302Z,55.54
2022-08-05T23:38:17.042Z,55.44
2022-08-05T23:40:50.216Z,55.40
2022-08-05T23:43:25.815Z,55.79
2022-08-05T23:46:21.223Z,55.72
2022-08-05T23:49:00.213Z,55.48
2022-08-05T23:51:53.587Z,55.57
2022-08-05T23:54:36.419Z,55.34
2022-08-05T23:57:05.552Z,55.26
